Airfield :
LOGIN :

Register | Disclaimer

   EN    FR    IT 

 










Legend :    VFR   Marginal VFR   IFR   Intensive IFR   Very Intensive IFR
Visi :
Ceiling :
>= 8 km
>= 3000ft
5 to 8 km
1000 to 3000 ft
1500m to 5 km
500 to 1000 ft
800 to 1500m
200 to 500 ft
< 800m
< 200 ft
Symbols :   Thunderstorms  Fog  Heavy snow  Heavy precipitations  Wind > 20 kt
SIGMETs :     Misc.  Thunderstorms  Icing  Turbulence  Mountain Waves  Volcanic Ashes







- Airport Elevation : 49 ft
- IATA code : GLZ


EHGR - Gilze-Rijen Airbase

CURRENT METAR :
  • 240155Z AUTO 02006KT 340V050 9999 FEW046 03/02 Q1030 BLU

EXPIRED METARs :
  • 240125Z AUTO 01006KT 330V030 9999 OVC390 04/03 Q1030 BLU
  • 240055Z AUTO 01007KT 330V040 9999 FEW023 SCT044 BKN350 04/03 Q1030 BLU
  • 240025Z AUTO 01006KT 330V040 9999 BKN023 BKN360 04/03 Q1031 WHT
  • 232355Z AUTO 01006KT 340V050 9999 OVC023 04/03 Q1031 WHT
  • 232344Z AUTO 02006KT 320V050 9999 SCT024 OVC380 04/03 Q1031 WHT
  • 232325Z AUTO 02006KT 330V050 9999 OVC350 04/03 Q1031 BLU

Expired Forecast.
No reported NOTAMs for that airfield.



MET'MAP, your aeronautical weather chart ! - Copyright ORBIFLY December 2007 - Disclaimer

ORBIFLY MET'MAP TEAM :

Programming & Development : Alexandra Zaïnal
Concept & Development : Baudouin d'Aumeries
Co-Development & Prog : Marc-Olivier Méhu
Technical & hardware support : Manuel Goepfert

Contact : metmap@orbifly.com




SOURCES & CREDITS :

   NOAA